Duck Creek, Indiana
Current Conditions -  °F | °C
As of 10:35 AM on Thursday 30 Oct 2014 (Local Time) from KMZZ Reporting Station
Overcast Overcast  
Wind Chill: 44°   Ceiling: 3700
Heat Index: 44°   Visibility: 10mi
Dew Point: 35°   Wind: 0mph
Humidity: 72%   Direction: NA
Pressure: 30.17"   Gusts: NA
Location:  40.3067°N, 85.834°W
Report Text: KMZZ 301435Z AUTO 00000KT 10SM OVC037 07/02 A3017 RMK AO2 T00670019
Loading
Personal Weather Stations






























Interactive Weather Map
Tropical Storm Tracking
New forecast layout! Learn more

10-Day Weather Forecast

Advertisements
Track Severe Weather on mobile